Time;durP1;ratioP1;P1;durP2;ratioP2;P2;SDS_P1;SDS_P2;PMS_P1;PMS_P2;Temp;Humidity;BMP_temperature;BMP_pressure;BME280_temperature;BME280_humidity;BME280_pressure;Samples;Min_cycle;Max_cycle;Signal;HPM_P1;HPM_P2
2021/11/22 00:01:28;;;;;;;4.70;0.90;;;6.10;99.90;;;;;;5116873;27;20050;-73
2021/11/22 00:03:54;;;;;;;4.75;1.58;;;6.10;99.90;;;;;;5117038;28;20048;-73
2021/11/22 00:06:20;;;;;;;7.30;1.60;;;6.00;99.90;;;;;;5116157;28;20039;-73
2021/11/22 00:08:46;;;;;;;5.55;1.45;;;6.00;99.90;;;;;;5116948;28;20039;-73
2021/11/22 00:11:12;;;;;;;2.58;1.00;;;6.00;99.90;;;;;;5098080;28;20472;-73
2021/11/22 00:13:38;;;;;;;5.68;1.60;;;6.00;99.90;;;;;;5116908;28;20039;-73
2021/11/22 00:16:05;;;;;;;4.82;1.27;;;6.00;99.90;;;;;;5114688;28;20093;-73
2021/11/22 00:18:31;;;;;;;2.65;1.05;;;5.90;99.90;;;;;;5115671;28;20103;-73
2021/11/22 00:20:56;;;;;;;5.90;1.83;;;6.00;99.90;;;;;;5116715;28;20459;-73
2021/11/22 00:23:22;;;;;;;4.30;1.00;;;6.00;99.90;;;;;;5116262;28;20032;-71
2021/11/22 00:25:48;;;;;;;5.97;0.88;;;6.00;99.90;;;;;;5115817;28;20042;-73
2021/11/22 00:28:13;;;;;;;4.00;1.20;;;5.90;99.90;;;;;;5114958;28;20133;-73
2021/11/22 00:30:39;;;;;;;4.32;1.40;;;5.90;99.90;;;;;;5115452;28;20488;-73
2021/11/22 00:33:08;;;;;;;5.20;1.10;;;5.90;99.90;;;;;;5116468;28;20047;-73
2021/11/22 00:35:33;;;;;;;4.93;1.08;;;5.80;99.90;;;;;;5115965;28;20092;-73
2021/11/22 00:38:08;;;;;;;2.45;1.10;;;5.90;99.90;;;;;;5114886;28;20119;-73
2021/11/22 00:40:36;;;;;;;9.10;1.77;;;5.80;99.90;;;;;;5116044;28;20140;-73
2021/11/22 00:43:02;;;;;;;5.97;1.00;;;5.80;99.90;;;;;;5116009;28;20039;-73
2021/11/22 00:45:29;;;;;;;3.38;1.02;;;5.70;99.90;;;;;;5114603;28;20590;-73
2021/11/22 00:47:57;;;;;;;5.07;0.82;;;5.70;99.90;;;;;;5115620;28;20047;-73
2021/11/22 00:50:23;;;;;;;4.00;0.93;;;5.60;99.90;;;;;;5115962;28;20043;-73
2021/11/22 00:52:49;;;;;;;7.63;1.25;;;5.60;99.90;;;;;;5116310;28;20038;-73
2021/11/22 00:55:14;;;;;;;4.28;1.00;;;5.60;99.90;;;;;;5116154;28;20047;-73
2021/11/22 00:57:40;;;;;;;3.22;0.95;;;5.60;99.90;;;;;;5115483;28;20035;-73
2021/11/22 01:00:09;;;;;;;7.63;0.90;;;5.60;99.90;;;;;;5114387;28;20042;-73
2021/11/22 01:02:35;;;;;;;3.92;1.25;;;5.50;99.90;;;;;;5114477;28;20039;-73
2021/11/22 01:05:06;;;;;;;5.82;1.13;;;5.50;99.90;;;;;;5114547;28;20110;-73
2021/11/22 01:07:31;;;;;;;5.28;1.08;;;5.50;99.90;;;;;;5115042;28;20035;-73
2021/11/22 01:09:58;;;;;;;8.00;1.42;;;5.50;99.90;;;;;;5115237;28;20492;-73
2021/11/22 01:12:27;;;;;;;5.82;1.13;;;5.50;99.90;;;;;;5115755;28;20063;-73
2021/11/22 01:14:57;;;;;;;4.65;0.90;;;5.50;99.90;;;;;;5115603;28;20031;-73
2021/11/22 01:17:24;;;;;;;4.18;1.33;;;5.40;99.90;;;;;;5114817;28;20043;-73
2021/11/22 01:19:52;;;;;;;3.47;1.27;;;5.50;99.90;;;;;;5115215;28;20036;-73
2021/11/22 01:22:22;;;;;;;6.15;1.10;;;5.40;99.90;;;;;;5115651;28;20039;-73
2021/11/22 01:24:48;;;;;;;3.58;0.90;;;5.40;99.90;;;;;;5114972;28;20071;-73
2021/11/22 01:27:13;;;;;;;6.28;1.33;;;5.40;99.90;;;;;;5115023;28;20345;-73
2021/11/22 01:29:39;;;;;;;4.75;1.20;;;5.40;99.90;;;;;;5114774;28;20039;-73
2021/11/22 01:32:05;;;;;;;5.35;1.20;;;5.40;99.90;;;;;;5114733;28;20032;-73
2021/11/22 01:34:31;;;;;;;5.28;1.13;;;5.30;99.90;;;;;;5115008;28;20032;-73
2021/11/22 01:36:56;;;;;;;4.07;1.00;;;5.30;99.90;;;;;;5114433;28;20042;-73
2021/11/22 01:39:22;;;;;;;3.65;1.20;;;5.30;99.90;;;;;;5114706;28;20039;-73
2021/11/22 01:41:48;;;;;;;4.80;0.98;;;5.20;99.90;;;;;;5114587;28;20040;-73
2021/11/22 01:44:13;;;;;;;3.92;0.98;;;5.20;99.90;;;;;;5113679;28;20044;-73
2021/11/22 01:46:39;;;;;;;2.78;1.20;;;5.20;99.90;;;;;;5096114;28;20047;-73
2021/11/22 01:49:05;;;;;;;7.53;1.52;;;5.10;99.90;;;;;;5113221;28;20043;-73
2021/11/22 01:51:31;;;;;;;2.65;0.98;;;5.10;99.90;;;;;;5114323;28;20449;-73
2021/11/22 01:53:58;;;;;;;3.13;1.10;;;5.10;99.90;;;;;;5114847;28;20047;-73
2021/11/22 01:56:25;;;;;;;5.88;2.03;;;5.10;99.90;;;;;;5112929;28;20091;-73
2021/11/22 01:58:50;;;;;;;3.67;1.33;;;5.00;99.90;;;;;;5113064;28;20047;-73
2021/11/22 02:01:16;;;;;;;2.30;0.98;;;5.10;99.90;;;;;;5114311;28;20036;-73
2021/11/22 02:03:42;;;;;;;3.53;0.82;;;5.00;99.90;;;;;;5114163;28;20404;-73
2021/11/22 02:06:08;;;;;;;4.88;1.33;;;5.00;99.90;;;;;;5114300;28;20039;-73
2021/11/22 02:08:33;;;;;;;6.93;1.15;;;5.00;99.90;;;;;;5114410;28;20071;-73
2021/11/22 02:11:00;;;;;;;1.98;0.93;;;5.00;99.90;;;;;;5114680;28;20119;-73
2021/11/22 02:13:25;;;;;;;3.25;1.27;;;4.90;99.90;;;;;;5114240;28;20031;-73
2021/11/22 02:15:52;;;;;;;5.05;1.10;;;4.90;99.90;;;;;;5112564;28;20043;-73
2021/11/22 02:18:18;;;;;;;6.10;1.42;;;4.90;99.90;;;;;;5114788;28;20035;-73
2021/11/22 02:20:45;;;;;;;5.03;0.90;;;4.80;99.90;;;;;;5114036;28;20089;-73
2021/11/22 02:23:12;;;;;;;3.42;1.30;;;4.80;99.90;;;;;;5114039;28;20044;-73
2021/11/22 02:25:40;;;;;;;1.35;0.80;;;4.80;99.90;;;;;;5113425;28;20095;-73
2021/11/22 02:28:07;;;;;;;1.85;0.93;;;4.80;99.90;;;;;;5095950;28;20527;-73
2021/11/22 02:30:37;;;;;;;4.50;0.90;;;4.70;99.90;;;;;;5113044;28;20396;-73
2021/11/22 02:33:09;;;;;;;2.60;1.00;;;4.70;99.90;;;;;;5113203;28;20523;-73
2021/11/22 02:35:41;;;;;;;3.63;1.17;;;4.60;99.90;;;;;;5113451;28;20082;-73
2021/11/22 02:38:07;;;;;;;2.75;1.00;;;4.70;99.90;;;;;;5113719;28;20122;-73
2021/11/22 02:40:33;;;;;;;2.28;0.82;;;4.60;99.90;;;;;;5113274;28;20074;-73
2021/11/22 02:42:59;;;;;;;5.93;0.90;;;4.60;99.90;;;;;;5114168;28;20035;-73
2021/11/22 02:45:25;;;;;;;4.95;1.08;;;4.60;99.90;;;;;;5113757;28;20054;-73
2021/11/22 02:47:52;;;;;;;3.25;0.80;;;4.60;99.90;;;;;;5113676;28;20128;-73
2021/11/22 02:50:21;;;;;;;2.85;0.85;;;4.60;99.90;;;;;;5113909;28;20039;-73
2021/11/22 02:52:48;;;;;;;1.27;0.88;;;4.60;99.90;;;;;;5113743;28;20079;-73
2021/11/22 02:55:16;;;;;;;2.10;1.23;;;4.50;99.90;;;;;;5113827;28;20122;-73
2021/11/22 02:57:42;;;;;;;1.08;0.70;;;4.50;99.90;;;;;;5113133;28;20036;-73
2021/11/22 03:00:16;;;;;;;2.60;0.98;;;4.50;99.90;;;;;;5112295;28;20036;-73
2021/11/22 03:02:43;;;;;;;8.70;1.42;;;4.50;99.90;;;;;;5113511;28;20549;-73
2021/11/22 03:05:09;;;;;;;3.95;0.88;;;4.40;99.90;;;;;;5112739;28;20051;-73
2021/11/22 03:07:35;;;;;;;3.05;0.90;;;4.30;99.90;;;;;;5111907;28;20039;-73
2021/11/22 03:10:02;;;;;;;3.67;0.82;;;4.30;99.90;;;;;;5112645;28;20376;-73
2021/11/22 03:12:28;;;;;;;4.95;0.93;;;4.30;99.90;;;;;;5112313;28;20047;-73
2021/11/22 03:14:54;;;;;;;1.60;0.77;;;4.30;99.90;;;;;;5113744;28;20040;-73
2021/11/22 03:17:19;;;;;;;3.38;0.70;;;4.30;99.90;;;;;;5113174;28;20092;-73
2021/11/22 03:19:45;;;;;;;5.03;1.50;;;4.30;99.90;;;;;;5095363;28;20040;-73
2021/11/22 03:22:11;;;;;;;2.88;0.98;;;4.30;99.90;;;;;;5113723;28;20537;-73
2021/11/22 03:24:37;;;;;;;1.50;0.73;;;4.20;99.90;;;;;;5112072;28;20092;-73
2021/11/22 03:27:03;;;;;;;2.20;1.00;;;4.20;99.90;;;;;;5112794;28;20036;-73
2021/11/22 03:29:29;;;;;;;2.95;1.20;;;4.20;99.90;;;;;;5113489;28;20040;-73
2021/11/22 03:31:56;;;;;;;2.03;0.85;;;4.20;99.90;;;;;;5113449;28;20031;-73
2021/11/22 03:34:22;;;;;;;6.07;1.20;;;4.20;99.90;;;;;;5113634;28;20050;-73
2021/11/22 03:36:48;;;;;;;4.28;0.77;;;4.10;99.90;;;;;;5111709;28;20491;-73
2021/11/22 03:39:24;;;;;;;3.88;1.02;;;4.10;99.90;;;;;;5113288;28;20046;-73
2021/11/22 03:41:51;;;;;;;5.28;0.85;;;4.20;99.90;;;;;;5113879;28;20035;-73
2021/11/22 03:44:18;;;;;;;3.50;0.85;;;4.10;99.90;;;;;;5113324;28;20044;-73
2021/11/22 03:46:47;;;;;;;3.55;0.82;;;4.10;99.90;;;;;;5111660;28;20123;-73
2021/11/22 03:49:14;;;;;;;4.03;0.70;;;4.10;99.90;;;;;;5114008;28;20078;-73
2021/11/22 03:51:42;;;;;;;2.42;1.05;;;4.10;99.90;;;;;;5112100;28;20567;-73
2021/11/22 03:54:10;;;;;;;4.45;1.15;;;4.10;99.90;;;;;;5115912;28;20464;-73
2021/11/22 03:56:36;;;;;;;3.97;1.00;;;4.00;99.90;;;;;;5116363;28;20122;-73
2021/11/22 03:59:01;;;;;;;1.48;1.00;;;3.90;99.90;;;;;;5116911;28;20115;-72
2021/11/22 04:01:27;;;;;;;2.58;0.80;;;3.90;99.90;;;;;;5116605;28;20488;-73
2021/11/22 04:03:52;;;;;;;5.20;0.88;;;3.90;99.90;;;;;;5116921;28;20089;-73
2021/11/22 04:06:18;;;;;;;3.20;0.90;;;3.90;99.90;;;;;;5116511;28;20092;-73
2021/11/22 04:08:44;;;;;;;5.45;0.90;;;3.90;99.90;;;;;;5115368;28;20043;-73
2021/11/22 04:11:10;;;;;;;2.90;0.68;;;3.90;99.90;;;;;;5116295;28;20043;-73
2021/11/22 04:13:36;;;;;;;4.22;0.80;;;3.90;99.90;;;;;;5115373;28;20040;-73
2021/11/22 04:16:03;;;;;;;2.88;0.90;;;3.80;99.90;;;;;;5114658;28;20088;-73
2021/11/22 04:18:29;;;;;;;3.22;1.00;;;3.80;99.90;;;;;;5116598;28;20047;-73
2021/11/22 04:20:54;;;;;;;2.40;0.88;;;3.80;99.90;;;;;;5116751;28;20035;-73
2021/11/22 04:23:20;;;;;;;3.03;1.42;;;3.70;99.90;;;;;;5114841;28;20609;-73
2021/11/22 04:25:46;;;;;;;3.55;0.60;;;3.80;99.90;;;;;;5116070;28;20035;-73
2021/11/22 04:28:12;;;;;;;3.28;1.00;;;3.70;99.90;;;;;;5116027;28;20101;-73
2021/11/22 04:30:38;;;;;;;1.95;0.65;;;3.70;99.90;;;;;;5116263;28;20028;-73
2021/11/22 04:33:04;;;;;;;3.85;1.10;;;3.70;99.90;;;;;;5115356;28;20474;-73
2021/11/22 04:35:30;;;;;;;4.10;0.80;;;3.70;99.90;;;;;;5115190;28;20075;-73
2021/11/22 04:37:57;;;;;;;2.58;1.02;;;3.70;99.90;;;;;;5115804;28;20079;-73
2021/11/22 04:40:23;;;;;;;2.83;0.70;;;3.70;99.90;;;;;;5115990;28;20075;-73
2021/11/22 04:42:49;;;;;;;3.03;0.70;;;3.70;99.90;;;;;;5116160;28;20078;-73
2021/11/22 04:45:17;;;;;;;2.28;0.70;;;3.70;99.90;;;;;;5115967;28;20495;-73
2021/11/22 04:47:43;;;;;;;2.97;0.70;;;3.70;99.90;;;;;;5116072;28;20039;-73
2021/11/22 04:50:09;;;;;;;2.20;0.60;;;3.70;99.90;;;;;;5114785;28;20147;-73
2021/11/22 04:52:35;;;;;;;4.00;0.90;;;3.60;99.90;;;;;;5115624;28;20040;-73
2021/11/22 04:55:02;;;;;;;3.03;0.75;;;3.60;99.90;;;;;;5115873;28;20071;-73
2021/11/22 04:57:28;;;;;;;1.13;0.50;;;3.60;99.90;;;;;;5115185;28;20441;-73
2021/11/22 04:59:53;;;;;;;4.35;0.77;;;3.60;99.90;;;;;;5115617;28;20032;-73
2021/11/22 05:02:19;;;;;;;4.15;0.75;;;3.60;99.90;;;;;;5115801;28;20483;-73
2021/11/22 05:04:44;;;;;;;6.40;1.20;;;3.60;99.90;;;;;;5114049;28;20128;-73
2021/11/22 05:07:10;;;;;;;1.45;1.10;;;3.60;99.90;;;;;;5114934;28;20040;-73
2021/11/22 05:09:36;;;;;;;4.72;1.13;;;3.50;99.90;;;;;;5115999;28;20085;-73
2021/11/22 05:12:02;;;;;;;1.40;0.80;;;3.50;99.90;;;;;;5115531;28;20051;-73
2021/11/22 05:14:27;;;;;;;8.65;1.00;;;3.50;99.90;;;;;;5114126;28;20031;-73
2021/11/22 05:16:53;;;;;;;1.52;0.70;;;3.50;99.90;;;;;;5114776;28;20480;-72
2021/11/22 05:19:19;;;;;;;3.22;0.73;;;3.50;99.90;;;;;;5115653;28;20089;-73
2021/11/22 05:21:45;;;;;;;1.58;0.80;;;3.40;99.90;;;;;;5115122;28;20035;-73
2021/11/22 05:24:11;;;;;;;4.80;1.00;;;3.40;99.90;;;;;;5115523;28;20115;-73
2021/11/22 05:26:38;;;;;;;6.35;3.15;;;3.40;99.90;;;;;;5114605;28;20104;-73
2021/11/22 05:29:06;;;;;;;6.30;2.08;;;3.40;99.90;;;;;;5114963;28;20040;-73
2021/11/22 05:31:33;;;;;;;5.55;1.50;;;3.30;99.90;;;;;;5115268;28;20110;-73
2021/11/22 05:33:59;;;;;;;3.10;1.42;;;3.40;99.90;;;;;;5113752;28;20487;-73
2021/11/22 05:36:24;;;;;;;3.60;1.67;;;3.40;99.90;;;;;;5114330;28;20050;-73
2021/11/22 05:38:50;;;;;;;2.60;0.80;;;3.30;99.90;;;;;;5114586;28;20540;-73
2021/11/22 05:41:16;;;;;;;5.50;1.20;;;3.30;99.90;;;;;;5114796;28;20036;-73
2021/11/22 05:43:42;;;;;;;4.20;1.00;;;3.30;99.90;;;;;;5114684;28;20048;-73
2021/11/22 05:46:09;;;;;;;6.45;1.10;;;3.30;99.90;;;;;;5114396;28;20076;-73
2021/11/22 05:48:35;;;;;;;1.88;1.30;;;3.30;99.90;;;;;;5113843;28;20051;-72
2021/11/22 05:51:02;;;;;;;3.90;1.33;;;3.30;99.90;;;;;;5114541;28;20028;-72
2021/11/22 05:53:34;;;;;;;1.95;1.15;;;3.20;99.90;;;;;;5113498;28;20035;-72
2021/11/22 05:56:04;;;;;;;8.02;1.00;;;3.20;99.90;;;;;;5114030;28;20035;-72
2021/11/22 05:58:31;;;;;;;3.58;1.15;;;3.20;99.90;;;;;;5114476;28;20048;-72
2021/11/22 06:01:03;;;;;;;5.00;1.60;;;3.20;99.90;;;;;;5114552;28;20071;-72
2021/11/22 06:03:29;;;;;;;4.80;1.27;;;3.20;99.90;;;;;;5114378;28;20082;-72
2021/11/22 06:05:55;;;;;;;4.65;1.60;;;3.20;99.90;;;;;;5114575;28;20063;-72
2021/11/22 06:08:22;;;;;;;4.20;1.50;;;3.20;99.90;;;;;;5114046;28;20058;-72
2021/11/22 06:10:49;;;;;;;8.38;2.40;;;3.20;99.90;;;;;;5114367;28;20039;-72
2021/11/22 06:13:16;;;;;;;6.68;1.80;;;3.10;99.90;;;;;;5114536;28;20036;-72
2021/11/22 06:15:43;;;;;;;7.03;1.90;;;3.10;99.90;;;;;;5113431;28;20110;-72
2021/11/22 06:18:09;;;;;;;3.88;2.42;;;3.10;99.90;;;;;;5114034;28;20054;-72
2021/11/22 06:20:36;;;;;;;4.75;1.95;;;3.10;99.90;;;;;;5112647;28;20073;-72
2021/11/22 06:23:01;;;;;;;4.97;2.83;;;3.00;99.90;;;;;;5112677;28;20115;-72
2021/11/22 06:25:27;;;;;;;7.78;2.80;;;3.00;99.90;;;;;;5113613;28;20122;-72
2021/11/22 06:27:53;;;;;;;5.85;2.72;;;3.00;99.90;;;;;;5113012;28;20051;-72
2021/11/22 06:30:19;;;;;;;14.13;4.22;;;3.00;99.90;;;;;;5113244;28;20044;-71
2021/11/22 06:32:44;;;;;;;8.05;3.90;;;3.00;99.90;;;;;;5112783;28;20050;-71
2021/11/22 06:35:10;;;;;;;7.60;3.40;;;3.00;99.90;;;;;;5113880;28;20484;-71
2021/11/22 06:37:36;;;;;;;8.23;3.38;;;3.00;99.90;;;;;;5113243;27;20055;-71
2021/11/22 06:40:07;;;;;;;7.35;3.08;;;3.00;99.90;;;;;;5112756;28;20035;-71
2021/11/22 06:42:33;;;;;;;8.23;3.05;;;3.00;99.90;;;;;;5114124;28;20046;-71
2021/11/22 06:44:59;;;;;;;6.93;3.63;;;2.90;99.90;;;;;;5114323;28;20115;-71
2021/11/22 06:47:26;;;;;;;6.53;2.20;;;2.90;99.90;;;;;;5113710;28;20039;-71
2021/11/22 06:49:52;;;;;;;3.90;1.70;;;2.90;99.90;;;;;;5113951;28;20043;-71
2021/11/22 06:52:20;;;;;;;3.17;1.48;;;2.90;99.90;;;;;;5113971;28;20050;-71
2021/11/22 06:54:46;;;;;;;3.40;1.45;;;2.90;99.90;;;;;;5113789;28;20039;-71
2021/11/22 06:57:14;;;;;;;5.22;2.00;;;2.80;99.90;;;;;;5113641;28;20533;-71
2021/11/22 06:59:40;;;;;;;5.97;1.67;;;2.80;99.90;;;;;;5114205;28;20495;-71
2021/11/22 07:02:11;;;;;;;2.85;1.50;;;2.80;99.90;;;;;;5112851;28;20035;-71
2021/11/22 07:04:37;;;;;;;3.03;1.48;;;2.80;99.90;;;;;;5114129;28;20035;-71
2021/11/22 07:07:03;;;;;;;6.15;1.80;;;2.70;99.90;;;;;;5113138;28;20039;-71
2021/11/22 07:09:28;;;;;;;4.63;1.52;;;2.70;99.90;;;;;;5114181;28;20122;-71
2021/11/22 07:11:54;;;;;;;2.03;1.42;;;2.70;99.90;;;;;;5112634;28;20043;-71
2021/11/22 07:14:20;;;;;;;6.05;1.60;;;2.70;99.90;;;;;;5095509;28;20474;-70
2021/11/22 07:16:45;;;;;;;3.10;1.60;;;2.70;99.90;;;;;;5113074;28;20034;-70
2021/11/22 07:19:11;;;;;;;5.00;1.90;;;2.70;99.90;;;;;;5113493;28;20476;-70
2021/11/22 07:21:36;;;;;;;2.80;1.52;;;2.60;99.90;;;;;;5112520;28;20063;-70
2021/11/22 07:24:02;;;;;;;5.68;1.85;;;2.60;99.90;;;;;;5112463;28;20096;-70
2021/11/22 07:26:28;;;;;;;4.55;1.88;;;2.70;99.90;;;;;;5111912;28;20036;-70
2021/11/22 07:28:53;;;;;;;3.47;1.60;;;2.70;99.90;;;;;;5116626;28;20044;-70
2021/11/22 07:31:19;;;;;;;3.42;1.55;;;2.70;99.90;;;;;;5116355;28;20044;-70
2021/11/22 07:33:45;;;;;;;2.95;1.60;;;2.70;99.90;;;;;;5117491;28;20433;-70
2021/11/22 07:36:10;;;;;;;5.07;1.90;;;2.70;99.90;;;;;;5116961;28;20042;-70
2021/11/22 07:38:36;;;;;;;3.80;1.75;;;2.70;99.90;;;;;;5116833;28;20510;-70
2021/11/22 07:41:02;;;;;;;3.20;1.50;;;2.80;99.90;;;;;;5117530;28;20379;-70
2021/11/22 07:43:27;;;;;;;4.85;1.77;;;2.80;99.90;;;;;;5115971;28;20090;-70
2021/11/22 07:45:53;;;;;;;4.75;1.55;;;2.80;99.90;;;;;;5116857;28;20031;-70
2021/11/22 07:48:19;;;;;;;4.35;1.60;;;2.80;99.90;;;;;;5115689;28;20043;-70
2021/11/22 07:50:44;;;;;;;3.70;1.80;;;2.80;99.90;;;;;;5115539;28;20040;-70
2021/11/22 07:53:10;;;;;;;9.60;2.67;;;2.90;99.90;;;;;;5116150;28;20180;-70
2021/11/22 07:55:36;;;;;;;4.82;1.50;;;2.90;99.90;;;;;;5116869;28;20385;-71
2021/11/22 07:58:01;;;;;;;4.00;1.65;;;3.00;99.90;;;;;;5116404;28;20135;-70
2021/11/22 08:00:28;;;;;;;8.52;2.03;;;3.20;99.90;;;;;;5116982;28;20158;-70
2021/11/22 08:02:54;;;;;;;8.63;2.35;;;3.30;99.90;;;;;;5115848;28;20118;-70
2021/11/22 08:05:23;;;;;;;5.00;1.80;;;3.50;99.90;;;;;;5116732;28;20035;-70
2021/11/22 08:07:53;;;;;;;5.70;1.98;;;3.60;99.90;;;;;;5115251;28;20089;-70
2021/11/22 08:12:47;;;;;;;4.95;2.72;;;3.70;99.90;;;;;;5116430;28;20047;-69
2021/11/22 08:15:13;;;;;;;3.88;2.25;;;3.80;99.90;;;;;;5116712;28;20031;-70
2021/11/22 08:17:42;;;;;;;3.58;1.92;;;3.80;99.90;;;;;;5116143;28;20096;-70
2021/11/22 08:20:18;;;;;;;11.75;3.58;;;3.80;99.90;;;;;;5116505;28;20047;-70
2021/11/22 08:22:47;;;;;;;4.55;2.85;;;3.90;99.90;;;;;;5115572;28;20051;-70
2021/11/22 08:25:14;;;;;;;9.00;2.30;;;4.00;99.90;;;;;;5116757;28;20074;-70
2021/11/22 08:27:40;;;;;;;6.05;2.30;;;4.10;99.90;;;;;;5114778;28;20567;-69
2021/11/22 08:30:09;;;;;;;6.38;2.33;;;4.20;99.90;;;;;;5116589;28;20046;-69
2021/11/22 08:32:36;;;;;;;3.78;2.17;;;4.30;99.90;;;;;;5116586;28;20035;-70
2021/11/22 08:35:02;;;;;;;7.35;2.58;;;4.40;99.90;;;;;;5116234;28;20081;-70
2021/11/22 08:37:28;;;;;;;10.00;2.67;;;4.40;99.90;;;;;;5116001;28;20047;-70
2021/11/22 08:39:54;;;;;;;4.55;2.05;;;4.50;99.90;;;;;;5115147;28;20392;-70
2021/11/22 08:42:19;;;;;;;4.32;1.90;;;4.50;99.90;;;;;;5097439;28;20169;-70
2021/11/22 08:44:45;;;;;;;8.93;2.90;;;4.50;99.90;;;;;;5097391;28;20040;-70
2021/11/22 08:47:13;;;;;;;4.53;2.20;;;4.60;99.90;;;;;;5115734;28;20040;-69
2021/11/22 08:49:39;;;;;;;4.10;2.15;;;4.60;99.90;;;;;;5116347;28;20039;-70
2021/11/22 08:52:05;;;;;;;5.32;2.25;;;4.60;99.90;;;;;;5115752;28;20108;-70
2021/11/22 08:54:31;;;;;;;7.57;2.30;;;4.60;99.90;;;;;;5114335;28;20036;-70
2021/11/22 08:56:57;;;;;;;4.38;2.63;;;4.60;99.90;;;;;;5113915;28;20039;-70
2021/11/22 08:59:22;;;;;;;7.50;2.20;;;4.70;99.90;;;;;;5114282;28;20448;-70
2021/11/22 09:01:48;;;;;;;7.65;2.72;;;4.70;99.90;;;;;;5114473;28;20036;-70
2021/11/22 09:04:14;;;;;;;5.45;3.45;;;4.70;99.90;;;;;;5115796;28;20084;-69
2021/11/22 09:06:39;;;;;;;8.23;2.80;;;4.80;99.90;;;;;;5115163;28;20503;-70
2021/11/22 09:09:08;;;;;;;8.68;2.88;;;4.80;99.90;;;;;;5114624;28;20044;-69
2021/11/22 09:11:35;;;;;;;8.75;3.22;;;4.90;99.90;;;;;;5113981;28;20134;-70
2021/11/22 09:14:00;;;;;;;6.40;3.25;;;4.90;99.90;;;;;;5115250;28;20043;-70
2021/11/22 09:16:27;;;;;;;8.63;3.35;;;5.00;99.90;;;;;;5113821;28;20038;-70
2021/11/22 09:19:02;;;;;;;7.88;2.75;;;5.00;99.90;;;;;;5115454;28;20476;-69
2021/11/22 09:21:28;;;;;;;5.63;3.22;;;5.10;99.90;;;;;;5115003;28;20064;-71
2021/11/22 09:23:54;;;;;;;6.72;3.78;;;5.20;99.90;;;;;;5114641;28;20420;-69
2021/11/22 09:26:20;;;;;;;7.55;3.22;;;5.20;99.90;;;;;;5114548;28;20028;-70
2021/11/22 09:28:46;;;;;;;9.23;3.92;;;5.30;99.90;;;;;;5113573;28;20054;-70
2021/11/22 09:31:13;;;;;;;8.73;3.88;;;5.30;99.90;;;;;;5115263;28;20046;-70
2021/11/22 09:33:40;;;;;;;9.52;3.90;;;5.40;99.90;;;;;;5115279;27;20035;-70
2021/11/22 09:36:06;;;;;;;12.82;4.63;;;5.40;99.90;;;;;;5113374;28;20496;-70
2021/11/22 09:38:32;;;;;;;8.07;4.15;;;5.50;99.90;;;;;;5114466;28;20039;-70
2021/11/22 09:40:58;;;;;;;5.57;3.83;;;5.50;99.90;;;;;;5115337;28;20080;-70
2021/11/22 09:43:24;;;;;;;9.68;4.13;;;5.60;99.90;;;;;;5113315;28;20088;-70
2021/11/22 09:45:51;;;;;;;8.15;3.90;;;5.60;99.90;;;;;;5113069;28;20222;-70
2021/11/22 09:48:17;;;;;;;10.45;3.83;;;5.70;99.90;;;;;;5114817;28;20044;-69
2021/11/22 09:50:43;;;;;;;7.18;3.65;;;5.70;99.90;;;;;;5114745;28;20043;-70
2021/11/22 09:53:10;;;;;;;6.30;3.40;;;5.70;99.90;;;;;;5113244;28;20043;-70
2021/11/22 09:55:37;;;;;;;8.45;3.63;;;5.80;99.90;;;;;;5112914;28;20039;-70
2021/11/22 09:58:05;;;;;;;5.57;3.10;;;5.80;99.90;;;;;;5114832;28;20045;-69
2021/11/22 10:00:42;;;;;;;8.02;2.65;;;5.90;99.90;;;;;;5113004;28;20063;-70
2021/11/22 10:03:14;;;;;;;5.90;2.10;;;6.00;99.90;;;;;;5113175;28;20050;-70
2021/11/22 10:05:42;;;;;;;7.93;2.33;;;6.00;99.90;;;;;;5112824;28;20047;-70
2021/11/22 10:08:18;;;;;;;13.27;2.50;;;6.10;99.90;;;;;;5114062;28;20036;-70
2021/11/22 10:10:47;;;;;;;6.68;2.33;;;6.00;99.90;;;;;;5113193;28;20075;-70
2021/11/22 10:13:36;;;;;;;11.15;2.30;;;6.10;99.90;;;;;;5112845;28;20048;-70
2021/11/22 10:16:07;;;;;;;5.82;2.20;;;6.20;99.90;;;;;;5113755;28;20508;-70
2021/11/22 10:18:40;;;;;;;3.85;2.13;;;6.20;99.90;;;;;;5114359;28;20055;-70
2021/11/22 10:21:09;;;;;;;5.30;2.15;;;6.30;99.90;;;;;;5113928;28;20031;-70
2021/11/22 10:23:39;;;;;;;6.00;2.40;;;6.30;99.90;;;;;;5113128;28;20084;-70
2021/11/22 10:26:10;;;;;;;4.38;2.47;;;6.40;99.90;;;;;;5112161;28;20044;-70
2021/11/22 10:28:51;;;;;;;625.05;65.55;;;6.40;99.90;;;;;;5114052;28;20036;-70
2021/11/22 10:31:24;;;;;;;264.77;23.08;;;6.50;99.90;;;;;;5113030;28;20126;-70
2021/11/22 10:33:51;;;;;;;53.33;6.18;;;6.60;99.90;;;;;;5112880;28;20069;-70
2021/11/22 10:36:20;;;;;;;33.17;4.78;;;6.60;99.90;;;;;;5113807;28;20040;-69
2021/11/22 10:38:50;;;;;;;15.98;3.03;;;6.70;99.90;;;;;;5113469;28;20040;-70
2021/11/22 10:41:23;;;;;;;11.98;2.58;;;6.70;99.90;;;;;;5113668;28;20477;-70
2021/11/22 10:44:04;;;;;;;9.15;2.58;;;6.80;99.90;;;;;;5113686;28;20032;-70
2021/11/22 10:46:43;;;;;;;7.55;1.80;;;6.80;99.90;;;;;;5113400;28;20040;-69
2021/11/22 10:49:14;;;;;;;2.40;1.17;;;6.80;99.90;;;;;;5113876;28;20047;-70
2021/11/22 10:51:45;;;;;;;4.05;1.10;;;6.80;99.90;;;;;;5112512;28;20400;-70
2021/11/22 10:54:12;;;;;;;5.07;1.40;;;6.90;99.90;;;;;;5112272;28;20035;-70
2021/11/22 10:56:40;;;;;;;5.70;1.30;;;6.90;99.90;;;;;;5111935;28;20050;-70
2021/11/22 10:59:13;;;;;;;3.10;1.17;;;6.90;99.90;;;;;;5112219;28;20036;-70
2021/11/22 11:01:48;;;;;;;5.97;1.50;;;6.90;99.90;;;;;;5115036;28;20111;-70
2021/11/22 11:04:25;;;;;;;3.25;1.20;;;7.00;99.90;;;;;;5116703;28;20042;-70
2021/11/22 11:07:00;;;;;;;4.57;1.60;;;7.00;99.90;;;;;;5116196;28;20082;-70
2021/11/22 11:09:35;;;;;;;4.72;1.70;;;7.10;99.90;;;;;;5116441;28;20047;-69
2021/11/22 11:12:10;;;;;;;3.00;1.63;;;7.20;99.90;;;;;;5116804;27;20059;-72
2021/11/22 11:14:39;;;;;;;5.13;1.40;;;7.70;99.90;;;;;;5117271;28;20485;-73
2021/11/22 11:17:18;;;;;;;2.05;1.23;;;7.80;99.90;;;;;;5115961;28;20434;-71
2021/11/22 11:19:46;;;;;;;3.35;1.05;;;7.90;99.90;;;;;;5117256;27;20054;-72
2021/11/22 11:22:12;;;;;;;4.65;1.23;;;7.90;99.90;;;;;;5117378;28;20369;-72
2021/11/22 11:24:38;;;;;;;2.83;1.10;;;7.90;99.90;;;;;;5114911;28;20039;-72
2021/11/22 11:27:04;;;;;;;4.18;0.98;;;8.10;99.90;;;;;;5115907;28;20100;-72
2021/11/22 11:29:31;;;;;;;2.63;1.27;;;8.10;99.90;;;;;;5117331;27;20040;-72
2021/11/22 11:31:57;;;;;;;5.38;1.23;;;8.10;99.90;;;;;;5116337;28;20044;-72
2021/11/22 11:34:28;;;;;;;3.13;1.50;;;8.20;99.90;;;;;;5116774;28;20401;-72
2021/11/22 11:37:12;;;;;;;2.20;1.13;;;8.20;99.90;;;;;;5115269;28;20118;-72
2021/11/22 11:39:53;;;;;;;4.03;1.23;;;8.30;99.90;;;;;;5116350;28;20051;-72
2021/11/22 11:42:39;;;;;;;1.52;1.30;;;8.20;99.90;;;;;;5117292;28;20522;-71
2021/11/22 11:45:25;;;;;;;3.38;0.75;;;8.20;99.90;;;;;;5115376;28;20043;-72
2021/11/22 11:48:19;;;;;;;5.18;0.60;;;8.30;99.90;;;;;;5116537;28;20050;-72
2021/11/22 11:50:44;;;;;;;8.63;1.48;;;8.20;99.90;;;;;;5114766;28;20120;-72
2021/11/22 11:53:13;;;;;;;1.30;0.60;;;8.20;99.90;;;;;;5113484;28;20047;-72
2021/11/22 11:55:40;;;;;;;6.47;1.20;;;8.20;99.90;;;;;;5115009;28;20071;-71
2021/11/22 11:58:25;;;;;;;3.88;0.90;;;8.30;99.90;;;;;;5116868;28;20043;-72
2021/11/22 12:01:01;;;;;;;6.93;0.90;;;8.30;99.90;;;;;;5114808;28;20040;-71
2021/11/22 12:03:51;;;;;;;4.65;1.23;;;8.30;99.90;;;;;;5115652;28;20040;-72
2021/11/22 12:06:48;;;;;;;2.83;1.15;;;8.30;99.90;;;;;;5115010;28;20044;-72
2021/11/22 12:09:37;;;;;;;2.55;1.20;;;8.30;99.90;;;;;;5115260;28;20051;-72
2021/11/22 12:12:21;;;;;;;1.23;0.50;;;8.30;99.90;;;;;;5114910;28;20048;-73
2021/11/22 12:15:20;;;;;;;1.33;0.70;;;8.30;99.90;;;;;;5114013;28;20036;-73
2021/11/22 12:17:46;;;;;;;2.92;0.52;;;8.40;99.90;;;;;;5097753;28;20070;-71
2021/11/22 12:20:34;;;;;;;5.65;1.00;;;8.30;99.90;;;;;;5115969;28;20043;-72
2021/11/22 12:23:06;;;;;;;3.67;1.20;;;8.30;99.90;;;;;;5114839;28;20084;-72
2021/11/22 12:25:43;;;;;;;5.22;1.25;;;8.30;99.90;;;;;;5115890;28;20038;-73
2021/11/22 12:28:34;;;;;;;3.80;1.30;;;8.30;99.90;;;;;;5114701;28;20512;-71
2021/11/22 12:31:13;;;;;;;2.47;1.10;;;8.30;99.90;;;;;;5114565;28;20055;-72
2021/11/22 12:33:45;;;;;;;4.95;0.93;;;8.20;99.90;;;;;;5116047;28;20503;-72
2021/11/22 12:36:10;;;;;;;11.35;1.38;;;8.20;99.90;;;;;;5116086;28;20036;-72
2021/11/22 12:38:42;;;;;;;3.28;1.17;;;8.20;99.90;;;;;;5114928;28;20394;-72
2021/11/22 12:41:28;;;;;;;2.75;0.90;;;8.20;99.90;;;;;;5116171;28;20554;-72
2021/11/22 12:43:56;;;;;;;3.38;0.98;;;8.20;99.90;;;;;;5115896;28;20044;-72
2021/11/22 12:46:38;;;;;;;4.40;0.80;;;8.20;99.90;;;;;;5115258;28;20477;-72
2021/11/22 12:49:28;;;;;;;7.22;1.63;;;8.20;99.90;;;;;;5116281;28;20071;-72
2021/11/22 12:51:54;;;;;;;3.55;0.73;;;8.20;99.90;;;;;;5115551;28;20507;-72
2021/11/22 12:54:21;;;;;;;4.07;0.73;;;8.30;99.90;;;;;;5115926;28;20048;-72
2021/11/22 12:56:47;;;;;;;4.68;1.00;;;8.20;99.90;;;;;;5115381;28;20349;-72
2021/11/22 12:59:19;;;;;;;2.47;0.90;;;8.30;99.90;;;;;;5115744;28;20043;-72
2021/11/22 13:01:50;;;;;;;2.13;0.95;;;8.30;99.90;;;;;;5116131;28;20469;-72
2021/11/22 13:04:47;;;;;;;7.57;1.63;;;8.30;99.90;;;;;;5116068;28;20050;-71